YPGV/GOV METAR and TAF weather

Enter ICAO airport designator
Station Type Date Time Source
YPGV METAR 2019/09/21 05:30 UTC NOAA

YPGV 210530Z AUTO 08012KT 9999 // SCT015 BKN020 BKN029 28/21 Q1014


Station Type Date Time Source
YPGV Decoded METAR 2019/09/21 05:30 UTC NOAA

Station name not available
Sep 21, 2019 - 01:30 AM EDT / 2019.09.21 0530 UTC
Wind: from the E (080 degrees) at 14 MPH (12 KT):0
Visibility: greater than 7 mile(s):0
Sky conditions: mostly cloudy
Temperature: 82 F (28 C)
Dew Point: 69 F (21 C)
Relative Humidity: 65%
Pressure (altimeter): 29.94 in. Hg (1014 hPa)
ob: YPGV 210530Z AUTO 08012KT 9999 // SCT015 BKN020 BKN029 28/21 Q1014
cycle: 5

Station Type Date Time Source
YPGV TAF 2019/09/21 02:00 UTC NOAA

TAF YPGV 210037Z 2102/2114 09012KT 9999 BKN020
FM210800 13005KT 9999 FEW020

Example: see airport list